createdAt,value
2019-04-09T00:02:31.783Z,99.99
2019-04-09T00:04:35.109Z,99.99
2019-04-09T00:05:35.877Z,99.99
2019-04-09T00:06:37.275Z,99.99
2019-04-09T00:07:37.862Z,99.99
2019-04-09T00:08:38.424Z,99.99
2019-04-09T00:09:38.988Z,99.99
2019-04-09T00:10:39.563Z,99.99
2019-04-09T00:11:40.339Z,99.99
2019-04-09T00:12:40.867Z,99.99
2019-04-09T00:13:41.631Z,99.99
2019-04-09T00:14:42.459Z,99.99
2019-04-09T00:15:42.999Z,99.99
2019-04-09T00:16:43.627Z,99.99
2019-04-09T00:17:44.470Z,99.99
2019-04-09T00:18:45.588Z,99.99
2019-04-09T00:19:46.153Z,99.99
2019-04-09T00:20:47.003Z,99.99
2019-04-09T00:21:47.939Z,99.99
2019-04-09T00:22:49.071Z,99.99
2019-04-09T00:23:49.685Z,99.99
2019-04-09T00:24:50.303Z,99.99
2019-04-09T00:25:51.150Z,99.99
2019-04-09T00:26:55.547Z,99.99
2019-04-09T00:27:53.324Z,99.99
2019-04-09T00:28:53.945Z,99.99
2019-04-09T00:29:54.458Z,99.99
2019-04-09T00:30:55.917Z,99.99
2019-04-09T00:31:55.887Z,99.99
2019-04-09T00:32:57.233Z,99.99
2019-04-09T00:33:57.797Z,99.99
2019-04-09T00:34:58.365Z,99.99
2019-04-09T00:35:59.229Z,99.99
2019-04-09T00:37:00.385Z,99.99
2019-04-09T00:38:01.004Z,99.99
2019-04-09T00:39:01.672Z,99.99
2019-04-09T00:40:02.200Z,99.99
2019-04-09T00:41:02.766Z,99.99
2019-04-09T00:42:03.330Z,99.99
2019-04-09T00:43:03.899Z,99.99
2019-04-09T00:44:04.506Z,99.99
2019-04-09T00:45:05.974Z,99.99
2019-04-09T00:46:07.215Z,99.99
2019-04-09T00:47:08.085Z,99.99
2019-04-09T00:48:08.706Z,99.99
2019-04-09T00:49:10.002Z,99.99
2019-04-09T00:50:10.545Z,99.99
2019-04-09T00:51:11.110Z,99.99
2019-04-09T00:52:11.751Z,99.99
2019-04-09T00:53:12.337Z,99.99
2019-04-09T00:54:12.933Z,99.99
2019-04-09T00:55:13.470Z,99.99
2019-04-09T00:56:14.089Z,99.99
2019-04-09T00:57:14.706Z,99.99
2019-04-09T00:58:16.267Z,99.99
2019-04-09T00:59:17.630Z,99.99
2019-04-09T01:00:18.573Z,99.99
2019-04-09T01:01:19.794Z,99.99
2019-04-09T01:02:20.548Z,99.99
2019-04-09T01:03:21.861Z,99.99
2019-04-09T01:04:22.417Z,99.99
2019-04-09T01:05:22.984Z,99.99
2019-04-09T01:06:23.554Z,99.99
2019-04-09T01:07:25.124Z,99.99
2019-04-09T01:08:25.679Z,99.99
2019-04-09T01:09:27.274Z,99.99
2019-04-09T01:10:26.848Z,99.99
2019-04-09T01:11:27.639Z,99.99
2019-04-09T01:12:28.279Z,99.99
2019-04-09T01:13:28.862Z,99.99
2019-04-09T01:14:29.540Z,99.99
2019-04-09T01:15:30.971Z,99.99
2019-04-09T01:16:31.853Z,99.99
2019-04-09T01:17:32.459Z,99.99
2019-04-09T01:18:33.026Z,99.99
2019-04-09T01:19:33.914Z,99.99
2019-04-09T01:20:34.465Z,99.99
2019-04-09T01:21:35.022Z,99.99
2019-04-09T01:22:35.589Z,99.99
2019-04-09T01:23:36.309Z,99.99
2019-04-09T01:24:39.419Z,99.99
2019-04-09T01:25:39.245Z,99.99
2019-04-09T01:26:39.823Z,99.99
2019-04-09T01:27:41.452Z,99.99
2019-04-09T01:28:42.743Z,99.99
2019-04-09T01:29:43.283Z,99.99
2019-04-09T01:30:44.013Z,99.99
2019-04-09T01:31:44.607Z,99.99
2019-04-09T01:32:45.226Z,99.99
2019-04-09T01:33:45.843Z,99.99
2019-04-09T01:34:47.111Z,99.99
2019-04-09T01:35:47.736Z,99.99
2019-04-09T01:36:48.338Z,99.99
2019-04-09T01:37:49.186Z,99.99
2019-04-09T01:38:49.780Z,99.99
2019-04-09T01:39:50.411Z,99.99
2019-04-09T01:40:50.936Z,99.99
2019-04-09T01:41:51.765Z,99.99
2019-04-09T01:42:52.318Z,99.99
2019-04-09T01:43:52.884Z,99.99
2019-04-09T01:44:54.477Z,99.99
2019-04-09T01:45:54.374Z,99.99
2019-04-09T01:46:55.664Z,99.99
2019-04-09T01:47:56.284Z,99.99
2019-04-09T01:48:56.910Z,99.99
2019-04-09T01:49:57.425Z,99.99
2019-04-09T01:50:58.000Z,99.99
2019-04-09T01:51:58.599Z,99.99
2019-04-09T01:52:59.166Z,99.99
2019-04-09T01:53:59.783Z,99.99
2019-04-09T01:55:00.359Z,99.99
2019-04-09T01:56:00.917Z,99.99
2019-04-09T01:57:01.481Z,99.99
2019-04-09T01:58:02.241Z,99.99
2019-04-09T01:59:02.775Z,99.99
2019-04-09T02:00:03.357Z,99.99
2019-04-09T02:01:03.912Z,99.99
2019-04-09T02:02:04.788Z,99.99
2019-04-09T02:03:05.354Z,99.99
2019-04-09T02:04:05.998Z,99.99
2019-04-09T02:05:06.923Z,99.99
2019-04-09T02:06:08.169Z,99.99
2019-04-09T02:07:08.776Z,99.99
2019-04-09T02:08:09.345Z,99.99
2019-04-09T02:09:09.911Z,99.99
2019-04-09T02:10:10.929Z,99.99
2019-04-09T02:11:11.518Z,99.99
2019-04-09T02:12:12.452Z,99.99
2019-04-09T02:13:13.014Z,99.99
2019-04-09T02:14:13.630Z,99.99
2019-04-09T02:15:14.654Z,99.99
2019-04-09T02:16:15.212Z,99.99
2019-04-09T02:17:15.874Z,99.99
2019-04-09T02:18:16.397Z,99.99
2019-04-09T02:19:16.985Z,99.99
2019-04-09T02:20:17.580Z,99.99
2019-04-09T02:21:18.149Z,99.99
2019-04-09T02:22:18.716Z,99.99
2019-04-09T02:23:20.075Z,99.99
2019-04-09T02:24:20.641Z,99.99
2019-04-09T02:25:21.208Z,99.99
2019-04-09T02:26:22.193Z,99.99
2019-04-09T02:27:34.694Z,99.99
2019-04-09T02:28:23.403Z,99.99
2019-04-09T02:29:24.901Z,99.99
2019-04-09T02:30:25.565Z,99.99
2019-04-09T02:31:26.653Z,99.99
2019-04-09T02:32:28.115Z,99.99
2019-04-09T02:33:29.662Z,99.99
2019-04-09T02:34:31.690Z,99.99
2019-04-09T02:35:32.774Z,99.99
2019-04-09T02:36:38.154Z,99.99
2019-04-09T02:37:34.584Z,99.99
2019-04-09T02:38:36.219Z,99.99
2019-04-09T02:39:36.221Z,99.99
2019-04-09T02:40:36.767Z,99.99
2019-04-09T02:41:37.473Z,99.99
2019-04-09T02:42:38.149Z,99.99
2019-04-09T02:43:38.715Z,99.99
2019-04-09T02:44:39.467Z,99.99
2019-04-09T02:45:40.091Z,99.99
2019-04-09T02:46:40.774Z,99.99
2019-04-09T02:47:41.272Z,99.99
2019-04-09T02:48:41.833Z,99.99
2019-04-09T02:49:43.459Z,99.99
2019-04-09T02:50:44.697Z,99.99
2019-04-09T02:51:45.261Z,99.99
2019-04-09T02:52:45.829Z,99.99
2019-04-09T02:53:46.752Z,99.99
2019-04-09T02:54:47.301Z,99.99
2019-04-09T02:55:47.869Z,99.99
2019-04-09T02:56:49.291Z,99.99
2019-04-09T02:57:54.197Z,99.99
2019-04-09T02:58:51.354Z,99.99
2019-04-09T02:59:52.563Z,99.99
2019-04-09T03:00:53.170Z,99.99
2019-04-09T03:01:53.735Z,99.99
2019-04-09T03:02:54.733Z,99.99
2019-04-09T03:03:55.885Z,99.99
2019-04-09T03:04:57.750Z,99.99
2019-04-09T03:05:59.100Z,99.99
2019-04-09T03:06:59.667Z,99.99
2019-04-09T03:08:00.235Z,99.99
2019-04-09T03:09:00.802Z,99.99
2019-04-09T03:10:01.886Z,99.99
2019-04-09T03:11:02.499Z,99.99
2019-04-09T03:12:03.118Z,99.99
2019-04-09T03:13:03.696Z,99.99
2019-04-09T03:14:04.251Z,99.99
2019-04-09T03:15:05.210Z,99.99
2019-04-09T03:16:05.771Z,99.99
2019-04-09T03:17:06.951Z,99.99
2019-04-09T03:18:07.676Z,99.99
2019-04-09T03:19:08.244Z,99.99
2019-04-09T03:20:09.900Z,99.99
2019-04-09T03:21:10.369Z,99.99
2019-04-09T03:22:11.089Z,99.99
2019-04-09T03:23:11.624Z,99.99
2019-04-09T03:24:12.240Z,99.99
2019-04-09T03:25:12.807Z,99.99
2019-04-09T03:26:13.442Z,99.99
2019-04-09T03:27:14.190Z,99.99
2019-04-09T03:28:15.209Z,99.99
2019-04-09T03:29:16.177Z,99.99
2019-04-09T03:30:16.871Z,99.99
2019-04-09T03:31:17.971Z,99.99
2019-04-09T03:32:19.695Z,99.99
2019-04-09T03:33:21.077Z,99.99
2019-04-09T03:34:23.670Z,99.99
2019-04-09T03:35:23.268Z,99.99
2019-04-09T03:36:23.817Z,99.99
2019-04-09T03:37:24.510Z,99.99
2019-04-09T03:38:25.026Z,99.99
2019-04-09T03:39:25.615Z,99.99
2019-04-09T03:40:26.173Z,99.99
2019-04-09T03:41:27.108Z,99.99
2019-04-09T03:42:28.436Z,99.99
2019-04-09T03:43:29.600Z,99.99
2019-04-09T03:44:30.345Z,99.99
2019-04-09T03:45:31.038Z,99.99
2019-04-09T03:46:32.152Z,99.99
2019-04-09T03:47:32.783Z,99.99
2019-04-09T03:48:33.410Z,99.99
2019-04-09T03:49:34.169Z,99.99
2019-04-09T03:50:35.501Z,99.99
2019-04-09T03:51:36.049Z,99.99
2019-04-09T03:52:36.663Z,99.99
2019-04-09T03:53:37.240Z,99.99
2019-04-09T03:54:37.839Z,99.99
2019-04-09T03:55:38.661Z,99.99
2019-04-09T03:56:39.193Z,99.99
2019-04-09T03:57:40.092Z,99.99
2019-04-09T03:58:40.455Z,99.99
2019-04-09T03:59:41.207Z,99.99
2019-04-09T04:00:41.739Z,99.99
2019-04-09T04:01:42.306Z,99.99
2019-04-09T04:02:42.874Z,99.99
2019-04-09T04:03:43.441Z,99.99
2019-04-09T04:04:44.169Z,99.99
2019-04-09T04:05:44.977Z,99.99
2019-04-09T04:06:46.327Z,99.99
2019-04-09T04:07:46.935Z,99.99
2019-04-09T04:08:47.626Z,99.99
2019-04-09T04:09:48.172Z,99.99
2019-04-09T04:10:48.779Z,99.99
2019-04-09T04:11:50.076Z,99.99
2019-04-09T04:12:50.655Z,99.99
2019-04-09T04:13:51.530Z,99.99
2019-04-09T04:14:51.875Z,99.99
2019-04-09T04:15:52.441Z,99.99
2019-04-09T04:16:53.128Z,99.99
2019-04-09T04:17:54.505Z,99.99
2019-04-09T04:18:55.068Z,99.99
2019-04-09T04:19:56.029Z,99.99
2019-04-09T04:20:56.610Z,99.99
2019-04-09T04:21:57.175Z,99.99
2019-04-09T04:22:58.223Z,99.99
2019-04-09T04:23:58.399Z,99.99
2019-04-09T04:24:58.964Z,99.99
2019-04-09T04:26:00.571Z,99.99
2019-04-09T04:27:00.941Z,99.99
2019-04-09T04:28:01.488Z,99.99
2019-04-09T04:29:02.058Z,99.99
2019-04-09T04:30:02.623Z,99.99
2019-04-09T04:31:03.352Z,99.99
2019-04-09T04:32:03.881Z,99.99
2019-04-09T04:33:04.726Z,99.99
2019-04-09T04:34:06.067Z,99.99
2019-04-09T04:35:06.644Z,99.99
2019-04-09T04:36:07.449Z,99.99
2019-04-09T04:37:08.450Z,99.99
2019-04-09T04:38:10.033Z,99.99
2019-04-09T04:39:10.331Z,99.99
2019-04-09T04:40:10.862Z,99.99
2019-04-09T04:41:12.012Z,99.99
2019-04-09T04:42:13.675Z,99.99
2019-04-09T04:43:14.774Z,99.99
2019-04-09T04:44:14.877Z,99.99
2019-04-09T04:45:15.444Z,99.99
2019-04-09T04:46:16.012Z,99.99
2019-04-09T04:47:17.510Z,99.99
2019-04-09T04:48:18.119Z,99.99
2019-04-09T04:49:18.688Z,99.99
2019-04-09T04:50:19.425Z,99.99
2019-04-09T04:51:20.280Z,99.99
2019-04-09T04:52:21.725Z,99.99
2019-04-09T04:53:22.459Z,99.99
2019-04-09T04:54:23.826Z,99.99
2019-04-09T04:55:24.434Z,99.99
2019-04-09T04:56:25.826Z,99.99
2019-04-09T04:57:27.198Z,99.99
2019-04-09T04:58:39.219Z,99.99
2019-04-09T04:59:29.344Z,99.99
2019-04-09T05:00:29.913Z,99.99
2019-04-09T05:01:30.570Z,99.99
2019-04-09T05:02:31.340Z,99.99
2019-04-09T05:03:32.603Z,99.99
2019-04-09T05:04:33.604Z,99.99
2019-04-09T05:05:35.164Z,99.99
2019-04-09T05:06:35.747Z,99.99
2019-04-09T05:07:42.900Z,99.99
2019-04-09T05:08:37.872Z,99.99
2019-04-09T05:09:39.863Z,99.99
2019-04-09T05:10:39.659Z,99.99
2019-04-09T05:11:41.128Z,99.99
2019-04-09T05:12:40.864Z,99.99
2019-04-09T05:13:41.480Z,99.99
2019-04-09T05:14:42.429Z,99.99
2019-04-09T05:15:43.860Z,99.99
2019-04-09T05:16:44.575Z,99.99
2019-04-09T05:17:45.155Z,99.99
2019-04-09T05:18:45.720Z,99.99
2019-04-09T05:19:46.759Z,99.99
2019-04-09T05:20:47.354Z,99.99
2019-04-09T05:21:48.435Z,99.99
2019-04-09T05:22:49.323Z,99.99
2019-04-09T05:23:49.979Z,99.99
2019-04-09T05:24:51.129Z,99.99
2019-04-09T05:25:51.732Z,99.99
2019-04-09T05:26:52.622Z,99.99
2019-04-09T05:27:54.102Z,99.99
2019-04-09T05:29:00.757Z,99.99
2019-04-09T05:29:56.289Z,99.99
2019-04-09T05:30:56.906Z,99.99
2019-04-09T05:31:57.572Z,99.99
2019-04-09T05:32:59.341Z,99.99
2019-04-09T05:34:00.844Z,99.99
2019-04-09T05:35:01.406Z,99.99
2019-04-09T05:36:02.033Z,99.99
2019-04-09T05:37:02.592Z,99.99
2019-04-09T05:38:03.176Z,99.99
2019-04-09T05:39:04.181Z,99.99
2019-04-09T05:40:06.257Z,99.99
2019-04-09T05:41:07.620Z,99.99
2019-04-09T05:42:08.721Z,99.99
2019-04-09T05:43:09.919Z,99.99
2019-04-09T05:44:10.531Z,99.99
2019-04-09T05:45:11.813Z,99.99
2019-04-09T05:46:13.126Z,99.99
2019-04-09T05:47:14.480Z,99.99
2019-04-09T05:48:15.113Z,99.99
2019-04-09T05:49:15.977Z,99.99
2019-04-09T05:50:17.242Z,99.99
2019-04-09T05:51:17.798Z,99.99
2019-04-09T05:52:18.366Z,99.99
2019-04-09T05:53:19.924Z,99.99
2019-04-09T05:54:20.497Z,99.99
2019-04-09T05:55:21.065Z,99.99
2019-04-09T05:56:22.175Z,99.99
2019-04-09T05:57:22.769Z,99.99
2019-04-09T05:58:23.546Z,99.99
2019-04-09T05:59:24.091Z,99.99
2019-04-09T06:00:24.698Z,99.99
2019-04-09T06:01:26.165Z,99.99
2019-04-09T06:02:40.483Z,99.99
2019-04-09T06:03:41.063Z,99.99
2019-04-09T06:04:42.353Z,99.99
2019-04-09T06:05:42.918Z,99.99
2019-04-09T06:06:44.356Z,99.99
2019-04-09T06:07:45.115Z,99.99
2019-04-09T06:08:46.506Z,99.99
2019-04-09T06:09:47.252Z,99.99
2019-04-09T06:10:47.865Z,99.99
2019-04-09T06:11:48.437Z,99.99
2019-04-09T06:12:49.153Z,99.99
2019-04-09T06:13:49.743Z,99.99
2019-04-09T06:14:51.858Z,99.99
2019-04-09T06:15:51.869Z,99.99
2019-04-09T06:16:52.597Z,99.99
2019-04-09T06:17:54.010Z,99.99
2019-04-09T06:18:54.566Z,99.99
2019-04-09T06:19:55.120Z,99.99
2019-04-09T06:20:55.703Z,99.99
2019-04-09T06:21:56.928Z,99.99
2019-04-09T06:22:57.516Z,99.99
2019-04-09T06:23:58.554Z,99.99
2019-04-09T06:24:59.604Z,99.99
2019-04-09T06:26:00.223Z,99.99
2019-04-09T06:27:00.743Z,99.99
2019-04-09T06:28:01.703Z,99.99
2019-04-09T06:29:14.291Z,99.99
2019-04-09T06:30:03.491Z,99.99
2019-04-09T06:31:04.290Z,99.99
2019-04-09T06:32:04.891Z,99.99
2019-04-09T06:33:05.914Z,99.99
2019-04-09T06:34:06.870Z,99.99
2019-04-09T06:35:07.611Z,99.99
2019-04-09T06:36:08.142Z,99.99
2019-04-09T06:37:08.913Z,99.99
2019-04-09T06:38:09.484Z,99.99
2019-04-09T06:39:10.060Z,99.99
2019-04-09T06:40:10.625Z,99.99
2019-04-09T06:41:11.198Z,99.99
2019-04-09T06:42:12.851Z,99.99
2019-04-09T06:43:13.333Z,99.99
2019-04-09T06:44:14.805Z,99.99
2019-04-09T06:45:15.532Z,99.99
2019-04-09T06:46:16.073Z,99.99
2019-04-09T06:47:16.645Z,99.99
2019-04-09T06:48:17.479Z,99.99
2019-04-09T06:49:18.015Z,99.99
2019-04-09T06:50:18.586Z,99.99
2019-04-09T06:51:29.566Z,99.99
2019-04-09T06:52:20.772Z,99.99
2019-04-09T06:53:21.521Z,99.99
2019-04-09T06:54:22.141Z,99.99
2019-04-09T06:55:22.851Z,99.99
2019-04-09T06:56:23.378Z,99.99
2019-04-09T06:57:23.949Z,99.99
2019-04-09T06:58:24.522Z,99.99
2019-04-09T06:59:30.308Z,99.99
2019-04-09T07:00:26.658Z,99.99
2019-04-09T07:01:27.231Z,99.99
2019-04-09T07:02:27.995Z,99.99
2019-04-09T07:03:28.528Z,99.99
2019-04-09T07:04:30.060Z,99.99
2019-04-09T07:05:30.654Z,99.99
2019-04-09T07:06:31.224Z,99.99
2019-04-09T07:07:31.844Z,99.99
2019-04-09T07:08:33.262Z,99.99
2019-04-09T07:09:33.812Z,99.99
2019-04-09T07:10:34.432Z,99.99
2019-04-09T07:11:35.131Z,99.99
2019-04-09T07:12:36.628Z,99.99
2019-04-09T07:13:37.832Z,99.99
2019-04-09T07:14:38.398Z,99.99
2019-04-09T07:15:39.715Z,99.99
2019-04-09T07:16:41.261Z,99.99
2019-04-09T07:17:42.761Z,99.99
2019-04-09T07:18:43.329Z,99.99
2019-04-09T07:19:43.951Z,99.99
2019-04-09T07:20:44.517Z,99.99
2019-04-09T07:21:45.087Z,99.99
2019-04-09T07:22:45.760Z,99.99
2019-04-09T07:23:46.347Z,99.99
2019-04-09T07:24:46.920Z,99.99
2019-04-09T07:25:47.493Z,99.99
2019-04-09T07:26:50.221Z,99.99
2019-04-09T07:27:53.251Z,99.99
2019-04-09T07:28:54.911Z,99.99
2019-04-09T07:30:01.197Z,99.99
2019-04-09T07:30:56.012Z,99.99
2019-04-09T07:32:00.469Z,99.99
2019-04-09T07:32:58.373Z,99.99
2019-04-09T07:33:58.960Z,99.99
2019-04-09T07:35:00.112Z,99.99
2019-04-09T07:36:03.089Z,99.99
2019-04-09T07:37:01.329Z,99.99
2019-04-09T07:38:01.951Z,99.99
2019-04-09T07:39:02.571Z,99.99
2019-04-09T07:40:04.090Z,99.99
2019-04-09T07:41:08.208Z,99.99
2019-04-09T07:42:06.241Z,99.99
2019-04-09T07:43:07.234Z,99.99
2019-04-09T07:44:07.852Z,99.99
2019-04-09T07:45:14.488Z,99.99
2019-04-09T07:46:12.982Z,99.99
2019-04-09T07:47:13.597Z,99.99
2019-04-09T07:48:13.372Z,99.99
2019-04-09T07:49:13.934Z,99.99
2019-04-09T07:50:15.602Z,99.99
2019-04-09T07:51:19.167Z,99.99
2019-04-09T07:52:17.887Z,99.99
2019-04-09T07:53:18.528Z,99.99
2019-04-09T07:54:19.148Z,99.99
2019-04-09T07:55:23.156Z,99.99
2019-04-09T07:56:21.757Z,99.99
2019-04-09T07:57:22.313Z,99.99
2019-04-09T07:58:23.161Z,99.99
2019-04-09T07:59:25.613Z,99.99
2019-04-09T08:00:27.070Z,99.99
2019-04-09T08:01:25.927Z,99.99
2019-04-09T08:02:27.413Z,99.99
2019-04-09T08:03:30.592Z,99.99
2019-04-09T08:04:30.165Z,99.99
2019-04-09T08:05:30.712Z,99.99
2019-04-09T08:06:31.285Z,99.99
2019-04-09T08:07:32.732Z,99.99
2019-04-09T08:08:34.115Z,99.99
2019-04-09T08:09:35.552Z,99.99
2019-04-09T08:10:36.149Z,99.99
2019-04-09T08:11:36.720Z,99.99
2019-04-09T08:12:41.728Z,99.99
2019-04-09T08:13:39.478Z,99.99
2019-04-09T08:14:39.696Z,99.99
2019-04-09T08:15:41.159Z,99.99
2019-04-09T08:16:42.354Z,99.99
2019-04-09T08:17:48.231Z,99.99
2019-04-09T08:18:45.135Z,99.99
2019-04-09T08:19:45.913Z,99.99
2019-04-09T08:20:46.539Z,99.99
2019-04-09T08:21:47.935Z,99.99
2019-04-09T08:22:49.635Z,99.99
2019-04-09T08:23:51.724Z,99.99
2019-04-09T08:24:54.581Z,99.99
2019-04-09T08:25:53.940Z,99.99
2019-04-09T08:26:55.039Z,99.99
2019-04-09T08:27:55.636Z,99.99
2019-04-09T08:28:56.574Z,99.99
2019-04-09T08:30:03.388Z,99.99
2019-04-09T08:30:59.300Z,99.99
2019-04-09T08:32:09.030Z,99.99
2019-04-09T08:33:00.517Z,99.99
2019-04-09T08:34:01.096Z,99.99
2019-04-09T08:35:04.987Z,99.99
2019-04-09T08:36:03.937Z,99.99
2019-04-09T08:37:05.060Z,99.99
2019-04-09T08:38:06.543Z,99.99
2019-04-09T08:39:08.285Z,99.99
2019-04-09T08:40:11.825Z,99.99
2019-04-09T08:41:08.548Z,99.99
2019-04-09T08:42:09.161Z,99.99
2019-04-09T08:43:09.790Z,99.99
2019-04-09T08:44:13.506Z,99.99
2019-04-09T08:45:12.159Z,99.99
2019-04-09T08:46:13.721Z,99.99
2019-04-09T08:47:14.839Z,99.99
2019-04-09T08:48:16.061Z,99.99
2019-04-09T08:49:18.010Z,99.99
2019-04-09T08:50:18.743Z,99.99
2019-04-09T08:51:19.332Z,99.99
2019-04-09T08:52:19.904Z,99.99
2019-04-09T08:53:20.583Z,99.99
2019-04-09T08:54:23.149Z,99.99
2019-04-09T08:55:22.682Z,99.99
2019-04-09T08:56:23.269Z,99.99
2019-04-09T08:57:23.835Z,99.99
2019-04-09T08:58:26.207Z,99.99
2019-04-09T08:59:29.768Z,99.99
2019-04-09T09:01:07.415Z,99.99
2019-04-09T09:02:02.540Z,99.99
2019-04-09T09:02:40.037Z,99.99
2019-04-09T09:03:44.672Z,99.99
2019-04-09T09:04:33.842Z,99.99
2019-04-09T09:05:35.858Z,99.99
2019-04-09T09:06:35.358Z,99.99
2019-04-09T09:07:36.572Z,99.99
2019-04-09T09:08:38.127Z,99.99
2019-04-09T09:09:42.998Z,99.99
2019-04-09T09:10:40.351Z,99.99
2019-04-09T09:11:40.935Z,99.99
2019-04-09T09:12:43.111Z,99.99
2019-04-09T09:13:43.552Z,99.99
2019-04-09T09:14:44.121Z,99.99
2019-04-09T09:15:44.695Z,99.99
2019-04-09T09:16:45.321Z,99.99
2019-04-09T09:17:49.504Z,99.99
2019-04-09T09:18:46.514Z,99.99
2019-04-09T09:19:49.800Z,99.99
2019-04-09T09:20:50.154Z,99.99
2019-04-09T09:21:51.171Z,99.99
2019-04-09T09:22:52.235Z,99.99
2019-04-09T09:23:52.789Z,99.99
2019-04-09T09:24:54.516Z,99.99
2019-04-09T09:25:54.929Z,99.99
2019-04-09T09:26:55.947Z,99.99
2019-04-09T09:27:59.139Z,99.99
2019-04-09T09:28:58.083Z,99.99
2019-04-09T09:29:59.788Z,99.99
2019-04-09T09:31:11.721Z,99.99
2019-04-09T09:32:02.930Z,99.99
2019-04-09T09:33:06.756Z,99.99
2019-04-09T09:34:05.139Z,99.99
2019-04-09T09:35:05.764Z,99.99
2019-04-09T09:36:08.795Z,99.99
2019-04-09T09:37:12.561Z,99.99
2019-04-09T09:38:09.481Z,99.99
2019-04-09T09:39:10.372Z,99.99
2019-04-09T09:40:11.443Z,99.99
2019-04-09T09:41:12.430Z,99.99
2019-04-09T09:42:13.043Z,99.99
2019-04-09T09:43:17.283Z,99.82
2019-04-09T09:44:15.206Z,99.10
2019-04-09T09:45:16.588Z,99.48
2019-04-09T09:46:17.199Z,99.29
2019-04-09T09:47:17.830Z,98.62
2019-04-09T09:48:21.271Z,97.76
2019-04-09T09:49:20.136Z,97.66
2019-04-09T09:50:20.849Z,97.66
2019-04-09T09:51:22.125Z,97.66
2019-04-09T09:52:23.774Z,97.56
2019-04-09T09:53:26.663Z,98.05
2019-04-09T09:54:26.574Z,97.61
2019-04-09T09:55:27.129Z,97.80
2019-04-09T09:56:33.675Z,98.00
2019-04-09T09:57:30.102Z,98.67
2019-04-09T09:58:31.131Z,98.57
2019-04-09T09:59:33.895Z,98.28
2019-04-09T10:00:33.333Z,99.15
2019-04-09T10:01:36.691Z,99.53
2019-04-09T10:02:37.493Z,98.96
2019-04-09T10:03:37.462Z,99.72
2019-04-09T10:04:38.945Z,99.91
2019-04-09T10:05:39.499Z,99.72
2019-04-09T10:06:41.829Z,99.99
2019-04-09T10:07:52.272Z,98.96
2019-04-09T10:08:43.833Z,99.58
2019-04-09T10:09:45.588Z,99.68
2019-04-09T10:10:47.933Z,99.68
2019-04-09T10:11:53.078Z,99.68
2019-04-09T10:12:51.311Z,99.29
2019-04-09T10:13:50.760Z,99.29
2019-04-09T10:14:51.414Z,99.19
2019-04-09T10:15:52.946Z,99.01
2019-04-09T10:16:54.399Z,99.29
2019-04-09T10:17:55.879Z,98.91
2019-04-09T10:19:04.552Z,98.67
2019-04-09T10:20:00.162Z,98.77
2019-04-09T10:21:00.431Z,98.57
2019-04-09T10:22:02.941Z,98.57
2019-04-09T10:23:02.919Z,97.61
2019-04-09T10:24:09.197Z,97.90
2019-04-09T10:25:05.806Z,98.10
2019-04-09T10:26:13.293Z,97.61
2019-04-09T10:27:12.873Z,97.52
2019-04-09T10:28:10.481Z,97.23
2019-04-09T10:29:15.201Z,96.85
2019-04-09T10:30:12.779Z,96.70
2019-04-09T10:31:23.692Z,96.80
2019-04-09T10:32:15.422Z,96.70
2019-04-09T10:33:16.331Z,96.61
2019-04-09T10:34:19.840Z,96.51
2019-04-09T10:35:18.447Z,96.70
2019-04-09T10:36:19.076Z,96.51
2019-04-09T10:37:22.815Z,96.61
2019-04-09T10:38:22.670Z,95.94
2019-04-09T10:39:23.049Z,96.22
2019-04-09T10:40:24.421Z,96.03
2019-04-09T10:41:34.361Z,96.03
2019-04-09T10:42:27.140Z,95.65
2019-04-09T10:43:28.447Z,95.84
2019-04-09T10:44:28.998Z,95.75
2019-04-09T10:45:30.194Z,95.36
2019-04-09T10:46:33.617Z,95.84
2019-04-09T10:47:31.421Z,95.26
2019-04-09T10:48:32.261Z,95.03
2019-04-09T10:49:34.796Z,94.83
2019-04-09T10:50:37.452Z,94.07
2019-04-09T10:51:39.450Z,94.16
2019-04-09T10:52:37.617Z,93.68
2019-04-09T10:53:38.162Z,93.77
2019-04-09T10:54:43.464Z,93.77
2019-04-09T10:55:40.313Z,93.59
2019-04-09T10:56:40.944Z,94.16
2019-04-09T10:57:42.075Z,94.35
2019-04-09T10:58:43.099Z,94.31
2019-04-09T10:59:44.907Z,94.59
2019-04-09T11:00:45.357Z,94.69
2019-04-09T11:01:51.425Z,95.36
2019-04-09T11:02:47.269Z,95.55
2019-04-09T11:03:50.582Z,96.13
2019-04-09T11:04:49.611Z,96.66
2019-04-09T11:05:52.883Z,96.66
2019-04-09T11:06:51.615Z,96.75
2019-04-09T11:07:52.259Z,97.04
2019-04-09T11:08:52.824Z,97.33
2019-04-09T11:09:53.406Z,97.71
2019-04-09T11:10:54.784Z,98.00
2019-04-09T11:11:57.051Z,97.81
2019-04-09T11:13:00.137Z,97.90
2019-04-09T11:14:01.103Z,97.81
2019-04-09T11:15:01.863Z,97.90
2019-04-09T11:16:02.186Z,97.33
2019-04-09T11:17:06.072Z,96.99
2019-04-09T11:18:08.490Z,95.60
2019-04-09T11:19:05.731Z,95.17
2019-04-09T11:20:06.810Z,94.74
2019-04-09T11:21:09.358Z,93.97
2019-04-09T11:22:08.068Z,93.97
2019-04-09T11:23:26.982Z,93.82
2019-04-09T11:24:30.010Z,92.57
2019-04-09T11:25:32.968Z,92.67
2019-04-09T11:29:48.326Z,90.89
2019-04-09T11:30:50.055Z,90.22
2019-04-09T11:33:20.429Z,89.64
2019-04-09T11:35:23.795Z,88.92
2019-04-09T11:36:25.902Z,88.44
2019-04-09T11:38:27.794Z,87.52
2019-04-09T11:39:28.343Z,87.42
2019-04-09T11:41:30.723Z,86.56
2019-04-09T11:43:36.286Z,86.22
2019-04-09T11:44:37.369Z,86.12
2019-04-09T11:45:38.184Z,85.74
2019-04-09T11:46:38.890Z,85.35
2019-04-09T11:47:39.433Z,85.16
2019-04-09T11:48:40.664Z,84.87
2019-04-09T11:49:41.235Z,84.29
2019-04-09T11:51:43.446Z,83.75
2019-04-09T11:52:44.857Z,83.95
2019-04-09T11:54:04.172Z,83.28
2019-04-09T11:55:05.105Z,83.03
2019-04-09T11:57:21.149Z,81.77
2019-04-09T11:59:37.371Z,81.39
2019-04-09T12:00:37.926Z,81.33
2019-04-09T12:01:38.810Z,80.66
2019-04-09T12:02:39.385Z,81.58
2019-04-09T12:03:39.981Z,81.48
2019-04-09T12:04:40.615Z,81.24
2019-04-09T12:05:43.988Z,80.46
2019-04-09T12:06:42.931Z,79.79
2019-04-09T12:07:44.337Z,79.69
2019-04-09T12:08:44.205Z,79.25
2019-04-09T12:17:10.179Z,76.92
2019-04-09T12:19:12.527Z,75.02
2019-04-09T12:21:15.290Z,75.22
2019-04-09T12:22:16.478Z,75.31
2019-04-09T12:23:17.117Z,75.12
2019-04-09T12:24:18.515Z,76.50
2019-04-09T12:25:19.827Z,78.29
2019-04-09T12:26:20.409Z,79.79
2019-04-09T12:29:25.945Z,82.98
2019-04-09T12:30:25.868Z,83.91
2019-04-09T12:31:26.424Z,84.48
2019-04-09T12:32:27.712Z,84.92
2019-04-09T12:33:29.298Z,86.46
2019-04-09T12:35:49.229Z,86.71
2019-04-09T12:36:49.865Z,86.90
2019-04-09T12:41:25.727Z,87.29
2019-04-09T12:42:26.475Z,87.23
2019-04-09T12:43:27.237Z,86.36
2019-04-09T12:44:27.808Z,85.83
2019-04-09T12:45:28.799Z,84.87
2019-04-09T12:49:30.187Z,85.88
2019-04-09T12:50:46.364Z,85.88
2019-04-09T12:51:59.919Z,86.56
2019-04-09T13:16:05.105Z,71.98
2019-04-09T13:17:05.781Z,71.01
2019-04-09T13:18:06.712Z,69.34
2019-04-09T13:19:07.353Z,69.11
2019-04-09T13:20:08.192Z,68.95
2019-04-09T13:21:08.767Z,69.01
2019-04-09T13:22:09.802Z,70.08
2019-04-09T13:23:09.984Z,69.85
2019-04-09T13:24:11.357Z,71.39
2019-04-09T13:25:11.957Z,73.86
2019-04-09T13:26:12.760Z,75.09
2019-04-09T13:27:14.025Z,76.78
2019-04-09T13:28:14.613Z,77.61
2019-04-09T13:29:15.199Z,78.44
2019-04-09T13:30:15.800Z,79.75
2019-04-09T13:31:17.072Z,80.71
2019-04-09T13:32:17.662Z,82.02
2019-04-09T13:33:18.332Z,82.79
2019-04-09T13:34:19.521Z,83.42
2019-04-09T13:35:20.132Z,84.63
2019-04-09T13:36:20.721Z,85.31
2019-04-09T13:38:24.983Z,86.90
2019-04-09T13:40:27.340Z,88.73
2019-04-09T13:45:18.413Z,92.72
2019-04-09T13:46:18.988Z,91.95
2019-04-09T13:47:19.624Z,92.33
2019-04-09T13:50:43.237Z,88.46
2019-04-09T13:51:43.861Z,82.96
2019-04-09T13:52:44.595Z,82.68
2019-04-09T13:54:46.827Z,83.30
2019-04-09T13:55:48.386Z,82.78
2019-04-09T13:56:49.380Z,81.91
2019-04-09T13:57:50.047Z,83.01
2019-04-09T13:58:50.678Z,79.81
2019-04-09T13:59:52.100Z,76.93
2019-04-09T14:00:52.840Z,74.40
2019-04-09T14:01:53.478Z,72.40
2019-04-09T14:02:58.273Z,71.47
2019-04-09T14:03:54.696Z,69.67
2019-04-09T14:04:55.283Z,68.82
2019-04-09T14:05:56.869Z,67.89
2019-04-09T14:07:59.223Z,65.69
2019-04-09T14:08:59.774Z,67.02
2019-04-09T14:10:00.552Z,68.56
2019-04-09T14:11:01.723Z,68.53
2019-04-09T14:12:03.877Z,70.18
2019-04-09T14:13:03.561Z,70.15
2019-04-09T14:14:04.591Z,67.02